sensor_id;sensor_type;location;lat;lon;timestamp;P1;durP1;ratioP1;P2;durP2;ratioP2
3755;SDS011;1893;52.526;13.360;2023-04-25T00:00:45;3.20;;;2.40;;
3755;SDS011;1893;52.526;13.360;2023-04-25T00:03:10;3.77;;;2.83;;
3755;SDS011;1893;52.526;13.360;2023-04-25T00:05:36;3.13;;;2.10;;
3755;SDS011;1893;52.526;13.360;2023-04-25T00:08:02;6.90;;;2.77;;
3755;SDS011;1893;52.526;13.360;2023-04-25T00:10:28;2.97;;;2.03;;
3755;SDS011;1893;52.526;13.360;2023-04-25T00:12:54;5.13;;;3.00;;
3755;SDS011;1893;52.526;13.360;2023-04-25T00:15:19;3.07;;;2.30;;
3755;SDS011;1893;52.526;13.360;2023-04-25T00:17:45;3.47;;;2.00;;
3755;SDS011;1893;52.526;13.360;2023-04-25T00:20:11;3.70;;;2.10;;
3755;SDS011;1893;52.526;13.360;2023-04-25T00:22:37;5.37;;;2.20;;
3755;SDS011;1893;52.526;13.360;2023-04-25T00:25:06;3.33;;;2.23;;
3755;SDS011;1893;52.526;13.360;2023-04-25T00:27:32;1.73;;;1.63;;
3755;SDS011;1893;52.526;13.360;2023-04-25T00:29:57;6.53;;;2.60;;
3755;SDS011;1893;52.526;13.360;2023-04-25T00:32:23;5.27;;;2.40;;
3755;SDS011;1893;52.526;13.360;2023-04-25T00:34:48;7.07;;;2.50;;
3755;SDS011;1893;52.526;13.360;2023-04-25T00:37:14;10.40;;;2.80;;
3755;SDS011;1893;52.526;13.360;2023-04-25T00:39:40;4.83;;;2.80;;
3755;SDS011;1893;52.526;13.360;2023-04-25T00:42:06;3.07;;;2.73;;
3755;SDS011;1893;52.526;13.360;2023-04-25T00:44:32;3.03;;;2.13;;
3755;SDS011;1893;52.526;13.360;2023-04-25T00:47:00;3.23;;;2.53;;
3755;SDS011;1893;52.526;13.360;2023-04-25T00:49:26;4.60;;;2.30;;
3755;SDS011;1893;52.526;13.360;2023-04-25T00:51:52;3.50;;;2.40;;
3755;SDS011;1893;52.526;13.360;2023-04-25T00:54:18;3.80;;;2.57;;
3755;SDS011;1893;52.526;13.360;2023-04-25T00:56:44;11.17;;;2.67;;
3755;SDS011;1893;52.526;13.360;2023-04-25T00:59:10;5.70;;;2.80;;
3755;SDS011;1893;52.526;13.360;2023-04-25T01:01:36;4.80;;;2.73;;
3755;SDS011;1893;52.526;13.360;2023-04-25T01:04:04;4.87;;;2.67;;
3755;SDS011;1893;52.526;13.360;2023-04-25T01:06:29;3.63;;;2.77;;
3755;SDS011;1893;52.526;13.360;2023-04-25T01:08:56;3.57;;;2.50;;
3755;SDS011;1893;52.526;13.360;2023-04-25T01:11:23;5.23;;;2.73;;
3755;SDS011;1893;52.526;13.360;2023-04-25T01:13:49;4.40;;;2.37;;
3755;SDS011;1893;52.526;13.360;2023-04-25T01:16:15;7.53;;;2.40;;
3755;SDS011;1893;52.526;13.360;2023-04-25T01:18:40;3.13;;;2.20;;
3755;SDS011;1893;52.526;13.360;2023-04-25T01:21:10;3.93;;;2.87;;
3755;SDS011;1893;52.526;13.360;2023-04-25T01:23:38;3.67;;;2.50;;
3755;SDS011;1893;52.526;13.360;2023-04-25T01:26:05;7.47;;;2.77;;
3755;SDS011;1893;52.526;13.360;2023-04-25T01:28:33;5.70;;;3.20;;
3755;SDS011;1893;52.526;13.360;2023-04-25T01:30:59;3.90;;;2.47;;
3755;SDS011;1893;52.526;13.360;2023-04-25T01:33:25;4.30;;;2.50;;
3755;SDS011;1893;52.526;13.360;2023-04-25T01:35:51;7.83;;;3.07;;
3755;SDS011;1893;52.526;13.360;2023-04-25T01:38:17;8.50;;;2.60;;
3755;SDS011;1893;52.526;13.360;2023-04-25T01:40:42;3.57;;;2.50;;
3755;SDS011;1893;52.526;13.360;2023-04-25T01:43:10;9.03;;;3.27;;
3755;SDS011;1893;52.526;13.360;2023-04-25T01:45:40;5.63;;;2.90;;
3755;SDS011;1893;52.526;13.360;2023-04-25T01:48:07;4.93;;;2.77;;
3755;SDS011;1893;52.526;13.360;2023-04-25T01:50:37;7.90;;;2.93;;
3755;SDS011;1893;52.526;13.360;2023-04-25T01:53:04;7.27;;;2.87;;
3755;SDS011;1893;52.526;13.360;2023-04-25T01:55:30;11.47;;;3.90;;
3755;SDS011;1893;52.526;13.360;2023-04-25T01:57:55;7.27;;;3.13;;
3755;SDS011;1893;52.526;13.360;2023-04-25T02:00:22;4.60;;;2.70;;
3755;SDS011;1893;52.526;13.360;2023-04-25T02:02:48;5.63;;;2.60;;
3755;SDS011;1893;52.526;13.360;2023-04-25T02:05:15;4.73;;;2.87;;
3755;SDS011;1893;52.526;13.360;2023-04-25T02:07:41;6.37;;;3.70;;
3755;SDS011;1893;52.526;13.360;2023-04-25T02:10:07;3.50;;;2.97;;
3755;SDS011;1893;52.526;13.360;2023-04-25T02:12:33;5.90;;;3.90;;
3755;SDS011;1893;52.526;13.360;2023-04-25T02:15:00;7.73;;;4.33;;
3755;SDS011;1893;52.526;13.360;2023-04-25T02:17:26;6.63;;;3.00;;
3755;SDS011;1893;52.526;13.360;2023-04-25T02:19:52;7.73;;;3.87;;
3755;SDS011;1893;52.526;13.360;2023-04-25T02:22:17;10.90;;;4.33;;
3755;SDS011;1893;52.526;13.360;2023-04-25T02:24:43;6.27;;;3.43;;
3755;SDS011;1893;52.526;13.360;2023-04-25T02:27:08;15.77;;;4.57;;
3755;SDS011;1893;52.526;13.360;2023-04-25T02:29:34;8.07;;;3.80;;
3755;SDS011;1893;52.526;13.360;2023-04-25T02:32:00;5.57;;;3.90;;
3755;SDS011;1893;52.526;13.360;2023-04-25T02:34:26;7.77;;;4.77;;
3755;SDS011;1893;52.526;13.360;2023-04-25T02:36:51;4.20;;;3.80;;
3755;SDS011;1893;52.526;13.360;2023-04-25T02:39:17;5.53;;;3.57;;
3755;SDS011;1893;52.526;13.360;2023-04-25T02:41:43;12.10;;;3.90;;
3755;SDS011;1893;52.526;13.360;2023-04-25T02:44:08;9.20;;;4.03;;
3755;SDS011;1893;52.526;13.360;2023-04-25T02:46:34;9.70;;;3.73;;
3755;SDS011;1893;52.526;13.360;2023-04-25T02:48:59;7.67;;;4.10;;
3755;SDS011;1893;52.526;13.360;2023-04-25T02:51:25;6.10;;;3.90;;
3755;SDS011;1893;52.526;13.360;2023-04-25T02:53:51;6.40;;;3.83;;
3755;SDS011;1893;52.526;13.360;2023-04-25T02:56:16;6.20;;;4.20;;
3755;SDS011;1893;52.526;13.360;2023-04-25T02:58:42;10.03;;;5.10;;
3755;SDS011;1893;52.526;13.360;2023-04-25T03:01:08;9.43;;;4.13;;
3755;SDS011;1893;52.526;13.360;2023-04-25T03:03:33;5.93;;;3.50;;
3755;SDS011;1893;52.526;13.360;2023-04-25T03:05:59;8.17;;;4.23;;
3755;SDS011;1893;52.526;13.360;2023-04-25T03:08:24;4.50;;;3.80;;
3755;SDS011;1893;52.526;13.360;2023-04-25T03:10:54;10.20;;;4.30;;
3755;SDS011;1893;52.526;13.360;2023-04-25T03:13:20;7.80;;;4.07;;
3755;SDS011;1893;52.526;13.360;2023-04-25T03:15:46;14.03;;;4.30;;
3755;SDS011;1893;52.526;13.360;2023-04-25T03:18:11;6.80;;;4.60;;
3755;SDS011;1893;52.526;13.360;2023-04-25T03:20:37;5.10;;;3.63;;
3755;SDS011;1893;52.526;13.360;2023-04-25T03:23:04;8.80;;;4.53;;
3755;SDS011;1893;52.526;13.360;2023-04-25T03:25:30;7.87;;;4.67;;
3755;SDS011;1893;52.526;13.360;2023-04-25T03:27:55;5.23;;;4.73;;
3755;SDS011;1893;52.526;13.360;2023-04-25T03:30:21;7.83;;;3.83;;
3755;SDS011;1893;52.526;13.360;2023-04-25T03:32:46;4.70;;;3.87;;
3755;SDS011;1893;52.526;13.360;2023-04-25T03:35:12;7.37;;;4.20;;
3755;SDS011;1893;52.526;13.360;2023-04-25T03:37:37;9.13;;;4.80;;
3755;SDS011;1893;52.526;13.360;2023-04-25T03:40:05;8.50;;;4.30;;
3755;SDS011;1893;52.526;13.360;2023-04-25T03:42:31;8.33;;;4.17;;
3755;SDS011;1893;52.526;13.360;2023-04-25T03:44:57;6.30;;;4.17;;
3755;SDS011;1893;52.526;13.360;2023-04-25T03:47:22;6.83;;;4.50;;
3755;SDS011;1893;52.526;13.360;2023-04-25T03:49:48;6.10;;;4.30;;
3755;SDS011;1893;52.526;13.360;2023-04-25T03:52:16;7.83;;;4.57;;
3755;SDS011;1893;52.526;13.360;2023-04-25T03:54:42;7.20;;;4.30;;
3755;SDS011;1893;52.526;13.360;2023-04-25T03:57:07;6.83;;;4.67;;
3755;SDS011;1893;52.526;13.360;2023-04-25T03:59:33;5.97;;;4.00;;
3755;SDS011;1893;52.526;13.360;2023-04-25T04:01:59;10.23;;;4.47;;
3755;SDS011;1893;52.526;13.360;2023-04-25T04:04:24;11.10;;;4.63;;
3755;SDS011;1893;52.526;13.360;2023-04-25T04:06:50;8.03;;;4.40;;
3755;SDS011;1893;52.526;13.360;2023-04-25T04:09:17;14.10;;;4.50;;
3755;SDS011;1893;52.526;13.360;2023-04-25T04:11:43;8.37;;;5.47;;
3755;SDS011;1893;52.526;13.360;2023-04-25T04:14:08;6.47;;;4.10;;
3755;SDS011;1893;52.526;13.360;2023-04-25T04:16:35;5.83;;;3.93;;
3755;SDS011;1893;52.526;13.360;2023-04-25T04:19:00;6.60;;;4.50;;
3755;SDS011;1893;52.526;13.360;2023-04-25T04:21:26;7.77;;;4.30;;
3755;SDS011;1893;52.526;13.360;2023-04-25T04:23:52;7.53;;;4.10;;
3755;SDS011;1893;52.526;13.360;2023-04-25T04:26:19;7.70;;;4.47;;
3755;SDS011;1893;52.526;13.360;2023-04-25T04:28:48;9.07;;;3.97;;
3755;SDS011;1893;52.526;13.360;2023-04-25T04:31:15;6.80;;;5.13;;
3755;SDS011;1893;52.526;13.360;2023-04-25T04:33:43;7.70;;;3.23;;
3755;SDS011;1893;52.526;13.360;2023-04-25T04:36:09;8.60;;;4.00;;
3755;SDS011;1893;52.526;13.360;2023-04-25T04:38:35;6.80;;;4.20;;
3755;SDS011;1893;52.526;13.360;2023-04-25T04:41:01;6.67;;;3.17;;
3755;SDS011;1893;52.526;13.360;2023-04-25T04:43:28;5.77;;;4.13;;
3755;SDS011;1893;52.526;13.360;2023-04-25T04:45:54;8.20;;;4.47;;
3755;SDS011;1893;52.526;13.360;2023-04-25T04:48:21;9.10;;;3.90;;
3755;SDS011;1893;52.526;13.360;2023-04-25T04:50:47;5.33;;;4.33;;
3755;SDS011;1893;52.526;13.360;2023-04-25T04:53:13;6.90;;;3.97;;
3755;SDS011;1893;52.526;13.360;2023-04-25T04:55:39;7.30;;;4.00;;
3755;SDS011;1893;52.526;13.360;2023-04-25T04:58:06;10.40;;;3.80;;
3755;SDS011;1893;52.526;13.360;2023-04-25T05:00:32;6.20;;;4.00;;
3755;SDS011;1893;52.526;13.360;2023-04-25T05:02:58;7.53;;;4.70;;
3755;SDS011;1893;52.526;13.360;2023-04-25T05:05:24;8.20;;;4.33;;
3755;SDS011;1893;52.526;13.360;2023-04-25T05:07:49;6.80;;;4.50;;
3755;SDS011;1893;52.526;13.360;2023-04-25T05:10:16;7.13;;;4.97;;
3755;SDS011;1893;52.526;13.360;2023-04-25T05:12:42;4.90;;;4.10;;
3755;SDS011;1893;52.526;13.360;2023-04-25T05:15:08;13.20;;;3.63;;
3755;SDS011;1893;52.526;13.360;2023-04-25T05:17:34;6.20;;;3.87;;
3755;SDS011;1893;52.526;13.360;2023-04-25T05:20:01;5.97;;;4.60;;
3755;SDS011;1893;52.526;13.360;2023-04-25T05:22:26;6.70;;;5.20;;
3755;SDS011;1893;52.526;13.360;2023-04-25T05:24:52;3.60;;;3.20;;
3755;SDS011;1893;52.526;13.360;2023-04-25T05:27:18;8.23;;;4.10;;
3755;SDS011;1893;52.526;13.360;2023-04-25T05:29:44;4.33;;;3.80;;
3755;SDS011;1893;52.526;13.360;2023-04-25T05:32:10;8.50;;;4.13;;
3755;SDS011;1893;52.526;13.360;2023-04-25T05:34:36;5.57;;;3.93;;
3755;SDS011;1893;52.526;13.360;2023-04-25T05:37:01;17.07;;;5.77;;
3755;SDS011;1893;52.526;13.360;2023-04-25T05:39:27;6.03;;;4.20;;
3755;SDS011;1893;52.526;13.360;2023-04-25T05:41:53;6.73;;;5.13;;
3755;SDS011;1893;52.526;13.360;2023-04-25T05:44:18;5.27;;;3.70;;
3755;SDS011;1893;52.526;13.360;2023-04-25T05:46:44;10.37;;;4.20;;
3755;SDS011;1893;52.526;13.360;2023-04-25T05:49:10;10.03;;;4.70;;
3755;SDS011;1893;52.526;13.360;2023-04-25T05:51:35;9.37;;;4.80;;
3755;SDS011;1893;52.526;13.360;2023-04-25T05:54:01;17.07;;;6.50;;
3755;SDS011;1893;52.526;13.360;2023-04-25T05:56:27;12.43;;;6.40;;
3755;SDS011;1893;52.526;13.360;2023-04-25T05:58:52;10.30;;;5.33;;
3755;SDS011;1893;52.526;13.360;2023-04-25T06:01:18;13.20;;;5.27;;
3755;SDS011;1893;52.526;13.360;2023-04-25T06:03:43;9.60;;;5.30;;
3755;SDS011;1893;52.526;13.360;2023-04-25T06:06:10;11.80;;;5.70;;
3755;SDS011;1893;52.526;13.360;2023-04-25T06:08:36;7.77;;;5.43;;
3755;SDS011;1893;52.526;13.360;2023-04-25T06:11:03;9.37;;;5.63;;
3755;SDS011;1893;52.526;13.360;2023-04-25T06:13:29;7.37;;;4.60;;
3755;SDS011;1893;52.526;13.360;2023-04-25T06:15:54;19.00;;;6.10;;
3755;SDS011;1893;52.526;13.360;2023-04-25T06:18:20;7.27;;;5.10;;
3755;SDS011;1893;52.526;13.360;2023-04-25T06:20:46;13.07;;;5.93;;
3755;SDS011;1893;52.526;13.360;2023-04-25T06:23:11;12.50;;;6.37;;
3755;SDS011;1893;52.526;13.360;2023-04-25T06:25:37;16.47;;;6.33;;
3755;SDS011;1893;52.526;13.360;2023-04-25T06:28:02;11.90;;;5.30;;
3755;SDS011;1893;52.526;13.360;2023-04-25T06:30:28;11.90;;;6.77;;
3755;SDS011;1893;52.526;13.360;2023-04-25T06:32:54;17.90;;;5.67;;
3755;SDS011;1893;52.526;13.360;2023-04-25T06:35:20;12.50;;;5.57;;
3755;SDS011;1893;52.526;13.360;2023-04-25T06:37:46;10.90;;;5.77;;
3755;SDS011;1893;52.526;13.360;2023-04-25T06:40:12;14.20;;;5.47;;
3755;SDS011;1893;52.526;13.360;2023-04-25T06:42:37;25.40;;;6.00;;
3755;SDS011;1893;52.526;13.360;2023-04-25T06:45:03;11.33;;;5.17;;
3755;SDS011;1893;52.526;13.360;2023-04-25T06:47:29;15.10;;;6.17;;
3755;SDS011;1893;52.526;13.360;2023-04-25T06:49:55;13.00;;;5.90;;
3755;SDS011;1893;52.526;13.360;2023-04-25T06:52:20;12.00;;;5.70;;
3755;SDS011;1893;52.526;13.360;2023-04-25T06:54:46;11.43;;;5.50;;
3755;SDS011;1893;52.526;13.360;2023-04-25T06:57:12;9.93;;;5.50;;
3755;SDS011;1893;52.526;13.360;2023-04-25T06:59:38;14.77;;;5.67;;
3755;SDS011;1893;52.526;13.360;2023-04-25T07:02:03;5.90;;;4.80;;
3755;SDS011;1893;52.526;13.360;2023-04-25T07:04:29;8.47;;;4.50;;
3755;SDS011;1893;52.526;13.360;2023-04-25T07:06:55;7.53;;;4.40;;
3755;SDS011;1893;52.526;13.360;2023-04-25T07:09:21;9.83;;;5.00;;
3755;SDS011;1893;52.526;13.360;2023-04-25T07:11:47;7.60;;;5.00;;
3755;SDS011;1893;52.526;13.360;2023-04-25T07:14:13;14.07;;;5.47;;
3755;SDS011;1893;52.526;13.360;2023-04-25T07:16:38;12.40;;;5.67;;
3755;SDS011;1893;52.526;13.360;2023-04-25T07:19:04;7.33;;;4.67;;
3755;SDS011;1893;52.526;13.360;2023-04-25T07:21:30;9.20;;;5.73;;
3755;SDS011;1893;52.526;13.360;2023-04-25T07:23:56;14.50;;;5.60;;
3755;SDS011;1893;52.526;13.360;2023-04-25T07:26:22;10.50;;;4.80;;
3755;SDS011;1893;52.526;13.360;2023-04-25T07:28:47;8.47;;;4.10;;
3755;SDS011;1893;52.526;13.360;2023-04-25T07:31:15;15.10;;;4.97;;
3755;SDS011;1893;52.526;13.360;2023-04-25T07:33:43;13.80;;;4.80;;
3755;SDS011;1893;52.526;13.360;2023-04-25T07:36:10;12.37;;;4.13;;
3755;SDS011;1893;52.526;13.360;2023-04-25T07:38:35;11.03;;;4.87;;
3755;SDS011;1893;52.526;13.360;2023-04-25T07:41:01;12.43;;;4.40;;
3755;SDS011;1893;52.526;13.360;2023-04-25T07:43:27;8.43;;;4.83;;
3755;SDS011;1893;52.526;13.360;2023-04-25T07:45:52;11.80;;;5.17;;
3755;SDS011;1893;52.526;13.360;2023-04-25T07:48:18;15.50;;;5.23;;
3755;SDS011;1893;52.526;13.360;2023-04-25T07:50:44;11.13;;;3.87;;
3755;SDS011;1893;52.526;13.360;2023-04-25T07:53:10;17.13;;;4.57;;
3755;SDS011;1893;52.526;13.360;2023-04-25T07:55:36;8.87;;;4.00;;
3755;SDS011;1893;52.526;13.360;2023-04-25T07:58:05;14.93;;;4.57;;
3755;SDS011;1893;52.526;13.360;2023-04-25T08:00:34;9.70;;;4.53;;
3755;SDS011;1893;52.526;13.360;2023-04-25T08:03:00;17.10;;;3.80;;
3755;SDS011;1893;52.526;13.360;2023-04-25T08:05:25;11.97;;;3.53;;
3755;SDS011;1893;52.526;13.360;2023-04-25T08:07:51;14.00;;;4.77;;
3755;SDS011;1893;52.526;13.360;2023-04-25T08:10:17;11.03;;;3.70;;
3755;SDS011;1893;52.526;13.360;2023-04-25T08:12:42;12.30;;;3.47;;
3755;SDS011;1893;52.526;13.360;2023-04-25T08:15:08;17.90;;;4.90;;
3755;SDS011;1893;52.526;13.360;2023-04-25T08:17:34;17.00;;;4.27;;
3755;SDS011;1893;52.526;13.360;2023-04-25T08:19:59;9.73;;;3.27;;
3755;SDS011;1893;52.526;13.360;2023-04-25T08:22:25;13.20;;;3.50;;
3755;SDS011;1893;52.526;13.360;2023-04-25T08:24:51;14.90;;;4.37;;
3755;SDS011;1893;52.526;13.360;2023-04-25T08:27:17;12.93;;;3.50;;
3755;SDS011;1893;52.526;13.360;2023-04-25T08:29:43;11.03;;;4.87;;
3755;SDS011;1893;52.526;13.360;2023-04-25T08:32:09;13.23;;;3.67;;
3755;SDS011;1893;52.526;13.360;2023-04-25T08:34:34;19.33;;;3.43;;
3755;SDS011;1893;52.526;13.360;2023-04-25T08:37:01;14.67;;;4.17;;
3755;SDS011;1893;52.526;13.360;2023-04-25T08:39:29;12.20;;;3.40;;
3755;SDS011;1893;52.526;13.360;2023-04-25T08:41:54;11.47;;;3.60;;
3755;SDS011;1893;52.526;13.360;2023-04-25T08:44:21;7.33;;;3.30;;
3755;SDS011;1893;52.526;13.360;2023-04-25T08:46:48;10.37;;;3.33;;
3755;SDS011;1893;52.526;13.360;2023-04-25T08:49:14;7.57;;;3.23;;
3755;SDS011;1893;52.526;13.360;2023-04-25T08:51:46;7.30;;;3.00;;
3755;SDS011;1893;52.526;13.360;2023-04-25T08:54:12;11.00;;;3.17;;
3755;SDS011;1893;52.526;13.360;2023-04-25T08:56:40;12.60;;;3.50;;
3755;SDS011;1893;52.526;13.360;2023-04-25T08:59:11;14.63;;;2.83;;
3755;SDS011;1893;52.526;13.360;2023-04-25T09:01:37;14.60;;;2.43;;
3755;SDS011;1893;52.526;13.360;2023-04-25T09:04:03;7.73;;;2.83;;
3755;SDS011;1893;52.526;13.360;2023-04-25T09:06:30;11.33;;;3.63;;
3755;SDS011;1893;52.526;13.360;2023-04-25T09:09:01;17.63;;;3.63;;
3755;SDS011;1893;52.526;13.360;2023-04-25T09:11:29;6.40;;;2.57;;
3755;SDS011;1893;52.526;13.360;2023-04-25T09:16:35;8.73;;;2.57;;
3755;SDS011;1893;52.526;13.360;2023-04-25T09:19:25;7.43;;;3.13;;
3755;SDS011;1893;52.526;13.360;2023-04-25T09:22:01;15.73;;;5.00;;
3755;SDS011;1893;52.526;13.360;2023-04-25T09:27:00;9.13;;;2.50;;
3755;SDS011;1893;52.526;13.360;2023-04-25T09:29:31;13.53;;;2.93;;
3755;SDS011;1893;52.526;13.360;2023-04-25T09:34:44;12.93;;;3.63;;
3755;SDS011;1893;52.526;13.360;2023-04-25T09:37:16;7.07;;;2.50;;
3755;SDS011;1893;52.526;13.360;2023-04-25T09:40:05;11.73;;;2.47;;
3755;SDS011;1893;52.526;13.360;2023-04-25T09:42:32;9.63;;;3.27;;
3755;SDS011;1893;52.526;13.360;2023-04-25T09:45:00;11.70;;;2.20;;
3755;SDS011;1893;52.526;13.360;2023-04-25T09:47:28;7.30;;;2.33;;
3755;SDS011;1893;52.526;13.360;2023-04-25T09:49:54;5.67;;;2.73;;
3755;SDS011;1893;52.526;13.360;2023-04-25T09:52:21;7.70;;;2.40;;
3755;SDS011;1893;52.526;13.360;2023-04-25T09:54:48;8.83;;;2.10;;
3755;SDS011;1893;52.526;13.360;2023-04-25T09:59:52;10.53;;;2.67;;
3755;SDS011;1893;52.526;13.360;2023-04-25T10:02:20;10.83;;;2.40;;
3755;SDS011;1893;52.526;13.360;2023-04-25T10:04:53;9.43;;;1.87;;
3755;SDS011;1893;52.526;13.360;2023-04-25T10:07:20;8.10;;;2.43;;
3755;SDS011;1893;52.526;13.360;2023-04-25T10:09:50;8.63;;;2.97;;
3755;SDS011;1893;52.526;13.360;2023-04-25T10:12:24;8.33;;;2.47;;
3755;SDS011;1893;52.526;13.360;2023-04-25T10:14:51;10.00;;;3.00;;
3755;SDS011;1893;52.526;13.360;2023-04-25T10:17:17;15.37;;;2.60;;
3755;SDS011;1893;52.526;13.360;2023-04-25T10:19:46;8.57;;;2.10;;
3755;SDS011;1893;52.526;13.360;2023-04-25T10:22:16;7.73;;;2.00;;
3755;SDS011;1893;52.526;13.360;2023-04-25T10:24:45;5.40;;;2.10;;
3755;SDS011;1893;52.526;13.360;2023-04-25T10:27:12;9.07;;;2.70;;
3755;SDS011;1893;52.526;13.360;2023-04-25T10:29:38;4.07;;;1.80;;
3755;SDS011;1893;52.526;13.360;2023-04-25T10:32:06;11.73;;;2.17;;
3755;SDS011;1893;52.526;13.360;2023-04-25T10:34:43;6.03;;;1.70;;
3755;SDS011;1893;52.526;13.360;2023-04-25T10:37:12;9.10;;;2.27;;
3755;SDS011;1893;52.526;13.360;2023-04-25T10:39:39;9.17;;;3.03;;
3755;SDS011;1893;52.526;13.360;2023-04-25T10:42:06;6.50;;;1.87;;
3755;SDS011;1893;52.526;13.360;2023-04-25T10:44:33;13.93;;;2.20;;
3755;SDS011;1893;52.526;13.360;2023-04-25T10:47:00;2.87;;;1.87;;
3755;SDS011;1893;52.526;13.360;2023-04-25T10:52:10;7.63;;;2.10;;
3755;SDS011;1893;52.526;13.360;2023-04-25T10:54:47;8.13;;;2.33;;
3755;SDS011;1893;52.526;13.360;2023-04-25T11:00:15;6.93;;;2.10;;
3755;SDS011;1893;52.526;13.360;2023-04-25T11:05:16;5.43;;;2.00;;
3755;SDS011;1893;52.526;13.360;2023-04-25T11:07:50;6.37;;;1.93;;
3755;SDS011;1893;52.526;13.360;2023-04-25T11:10:18;11.80;;;2.80;;
3755;SDS011;1893;52.526;13.360;2023-04-25T11:12:45;9.50;;;3.13;;
3755;SDS011;1893;52.526;13.360;2023-04-25T11:15:11;13.07;;;2.70;;
3755;SDS011;1893;52.526;13.360;2023-04-25T11:17:37;8.40;;;2.63;;
3755;SDS011;1893;52.526;13.360;2023-04-25T11:20:05;6.40;;;2.00;;
3755;SDS011;1893;52.526;13.360;2023-04-25T11:22:36;6.03;;;2.23;;
3755;SDS011;1893;52.526;13.360;2023-04-25T11:25:05;10.23;;;2.23;;
3755;SDS011;1893;52.526;13.360;2023-04-25T11:27:32;5.73;;;2.40;;
3755;SDS011;1893;52.526;13.360;2023-04-25T11:29:58;5.93;;;1.87;;
3755;SDS011;1893;52.526;13.360;2023-04-25T11:32:23;5.07;;;1.60;;
3755;SDS011;1893;52.526;13.360;2023-04-25T11:34:49;5.37;;;1.80;;
3755;SDS011;1893;52.526;13.360;2023-04-25T11:37:14;6.00;;;1.63;;
3755;SDS011;1893;52.526;13.360;2023-04-25T11:39:44;5.77;;;1.77;;
3755;SDS011;1893;52.526;13.360;2023-04-25T11:42:13;9.63;;;1.97;;
3755;SDS011;1893;52.526;13.360;2023-04-25T11:44:39;11.30;;;2.37;;
3755;SDS011;1893;52.526;13.360;2023-04-25T11:47:05;3.37;;;1.50;;
3755;SDS011;1893;52.526;13.360;2023-04-25T11:49:31;7.47;;;2.10;;
3755;SDS011;1893;52.526;13.360;2023-04-25T11:51:57;3.83;;;1.90;;
3755;SDS011;1893;52.526;13.360;2023-04-25T11:54:23;5.23;;;2.53;;
3755;SDS011;1893;52.526;13.360;2023-04-25T11:56:48;7.83;;;2.13;;
3755;SDS011;1893;52.526;13.360;2023-04-25T11:59:14;4.97;;;2.00;;
3755;SDS011;1893;52.526;13.360;2023-04-25T12:01:46;11.73;;;1.80;;
3755;SDS011;1893;52.526;13.360;2023-04-25T12:04:31;5.30;;;1.90;;
3755;SDS011;1893;52.526;13.360;2023-04-25T12:06:57;7.60;;;2.87;;
3755;SDS011;1893;52.526;13.360;2023-04-25T12:09:31;3.43;;;1.80;;
3755;SDS011;1893;52.526;13.360;2023-04-25T12:11:58;11.30;;;2.67;;
3755;SDS011;1893;52.526;13.360;2023-04-25T12:14:28;6.10;;;2.13;;
3755;SDS011;1893;52.526;13.360;2023-04-25T12:16:59;12.43;;;3.53;;
3755;SDS011;1893;52.526;13.360;2023-04-25T12:19:34;4.50;;;1.90;;
3755;SDS011;1893;52.526;13.360;2023-04-25T12:22:01;5.87;;;2.43;;
3755;SDS011;1893;52.526;13.360;2023-04-25T12:24:28;3.80;;;1.70;;
3755;SDS011;1893;52.526;13.360;2023-04-25T12:27:03;7.53;;;2.93;;
3755;SDS011;1893;52.526;13.360;2023-04-25T12:29:31;10.00;;;2.23;;
3755;SDS011;1893;52.526;13.360;2023-04-25T12:31:58;8.10;;;2.10;;
3755;SDS011;1893;52.526;13.360;2023-04-25T12:34:24;4.70;;;1.80;;
3755;SDS011;1893;52.526;13.360;2023-04-25T12:36:50;3.43;;;1.93;;
3755;SDS011;1893;52.526;13.360;2023-04-25T12:39:17;8.03;;;2.33;;
3755;SDS011;1893;52.526;13.360;2023-04-25T12:41:44;4.60;;;2.17;;
3755;SDS011;1893;52.526;13.360;2023-04-25T12:44:11;4.20;;;2.00;;
3755;SDS011;1893;52.526;13.360;2023-04-25T12:46:37;5.23;;;2.03;;
3755;SDS011;1893;52.526;13.360;2023-04-25T12:49:03;3.70;;;1.73;;
3755;SDS011;1893;52.526;13.360;2023-04-25T12:51:31;5.43;;;2.10;;
3755;SDS011;1893;52.526;13.360;2023-04-25T12:53:57;6.43;;;1.40;;
3755;SDS011;1893;52.526;13.360;2023-04-25T12:56:24;5.80;;;1.90;;
3755;SDS011;1893;52.526;13.360;2023-04-25T12:58:51;3.50;;;1.40;;
3755;SDS011;1893;52.526;13.360;2023-04-25T13:01:17;3.60;;;1.70;;
3755;SDS011;1893;52.526;13.360;2023-04-25T13:03:42;6.83;;;1.50;;
3755;SDS011;1893;52.526;13.360;2023-04-25T13:06:08;4.30;;;1.70;;
3755;SDS011;1893;52.526;13.360;2023-04-25T13:08:34;4.63;;;1.70;;
3755;SDS011;1893;52.526;13.360;2023-04-25T13:11:01;5.10;;;2.10;;
3755;SDS011;1893;52.526;13.360;2023-04-25T13:13:28;4.60;;;1.77;;
3755;SDS011;1893;52.526;13.360;2023-04-25T13:15:54;7.73;;;1.70;;
3755;SDS011;1893;52.526;13.360;2023-04-25T13:18:20;3.10;;;1.60;;
3755;SDS011;1893;52.526;13.360;2023-04-25T13:20:46;3.00;;;1.30;;
3755;SDS011;1893;52.526;13.360;2023-04-25T13:23:11;5.33;;;1.40;;
3755;SDS011;1893;52.526;13.360;2023-04-25T13:25:37;6.00;;;1.70;;
3755;SDS011;1893;52.526;13.360;2023-04-25T13:28:03;3.70;;;1.40;;
3755;SDS011;1893;52.526;13.360;2023-04-25T13:30:28;7.80;;;2.07;;
3755;SDS011;1893;52.526;13.360;2023-04-25T13:32:54;5.30;;;1.50;;
3755;SDS011;1893;52.526;13.360;2023-04-25T13:35:21;4.13;;;1.40;;
3755;SDS011;1893;52.526;13.360;2023-04-25T13:37:47;3.33;;;1.63;;
3755;SDS011;1893;52.526;13.360;2023-04-25T13:40:13;7.33;;;1.60;;
3755;SDS011;1893;52.526;13.360;2023-04-25T13:42:39;6.50;;;1.40;;
3755;SDS011;1893;52.526;13.360;2023-04-25T13:45:06;4.23;;;1.40;;
3755;SDS011;1893;52.526;13.360;2023-04-25T13:47:32;6.70;;;1.67;;
3755;SDS011;1893;52.526;13.360;2023-04-25T13:49:58;5.53;;;1.57;;
3755;SDS011;1893;52.526;13.360;2023-04-25T13:52:25;11.43;;;1.67;;
3755;SDS011;1893;52.526;13.360;2023-04-25T13:54:50;4.70;;;1.40;;
3755;SDS011;1893;52.526;13.360;2023-04-25T13:57:16;4.53;;;1.97;;
3755;SDS011;1893;52.526;13.360;2023-04-25T13:59:42;4.20;;;1.70;;
3755;SDS011;1893;52.526;13.360;2023-04-25T14:02:08;4.83;;;1.67;;
3755;SDS011;1893;52.526;13.360;2023-04-25T14:04:33;4.63;;;1.70;;
3755;SDS011;1893;52.526;13.360;2023-04-25T14:06:59;4.37;;;1.47;;
3755;SDS011;1893;52.526;13.360;2023-04-25T14:09:27;8.67;;;1.60;;
3755;SDS011;1893;52.526;13.360;2023-04-25T14:11:52;7.97;;;1.83;;
3755;SDS011;1893;52.526;13.360;2023-04-25T14:14:19;5.20;;;1.90;;
3755;SDS011;1893;52.526;13.360;2023-04-25T14:16:45;6.43;;;2.40;;
3755;SDS011;1893;52.526;13.360;2023-04-25T14:19:13;7.57;;;1.70;;
3755;SDS011;1893;52.526;13.360;2023-04-25T14:21:39;6.90;;;2.33;;
3755;SDS011;1893;52.526;13.360;2023-04-25T14:24:04;4.87;;;1.63;;
3755;SDS011;1893;52.526;13.360;2023-04-25T14:26:30;8.10;;;2.50;;
3755;SDS011;1893;52.526;13.360;2023-04-25T14:28:56;10.03;;;1.93;;
3755;SDS011;1893;52.526;13.360;2023-04-25T14:31:21;1.63;;;1.20;;
3755;SDS011;1893;52.526;13.360;2023-04-25T14:33:47;5.30;;;1.63;;
3755;SDS011;1893;52.526;13.360;2023-04-25T14:36:13;2.47;;;1.30;;
3755;SDS011;1893;52.526;13.360;2023-04-25T14:38:39;4.87;;;1.70;;
3755;SDS011;1893;52.526;13.360;2023-04-25T14:41:04;5.17;;;1.50;;
3755;SDS011;1893;52.526;13.360;2023-04-25T14:43:30;8.13;;;2.10;;
3755;SDS011;1893;52.526;13.360;2023-04-25T14:45:56;11.60;;;1.67;;
3755;SDS011;1893;52.526;13.360;2023-04-25T14:48:21;8.17;;;1.93;;
3755;SDS011;1893;52.526;13.360;2023-04-25T14:50:48;4.13;;;1.90;;
3755;SDS011;1893;52.526;13.360;2023-04-25T14:53:14;5.10;;;1.67;;
3755;SDS011;1893;52.526;13.360;2023-04-25T14:55:40;8.40;;;1.67;;
3755;SDS011;1893;52.526;13.360;2023-04-25T14:58:06;4.43;;;1.60;;
3755;SDS011;1893;52.526;13.360;2023-04-25T15:00:32;8.53;;;2.43;;
3755;SDS011;1893;52.526;13.360;2023-04-25T15:02:58;2.63;;;1.60;;
3755;SDS011;1893;52.526;13.360;2023-04-25T15:05:23;5.00;;;1.20;;
3755;SDS011;1893;52.526;13.360;2023-04-25T15:07:49;8.80;;;2.60;;
3755;SDS011;1893;52.526;13.360;2023-04-25T15:10:16;8.07;;;1.53;;
3755;SDS011;1893;52.526;13.360;2023-04-25T15:12:42;3.57;;;1.07;;